createdAt,value
2023-03-20T00:01:26.037Z,0
2023-03-20T00:03:16.429Z,0
2023-03-20T00:04:51.038Z,0
2023-03-20T00:06:36.764Z,0
2023-03-20T00:07:27.409Z,0
2023-03-20T00:09:32.077Z,0
2023-03-20T00:11:01.293Z,0
2023-03-20T00:11:33.926Z,0
2023-03-20T00:12:47.717Z,0
2023-03-20T00:13:39.574Z,0
2023-03-20T00:14:31.289Z,0
2023-03-20T00:15:22.481Z,0
2023-03-20T00:16:25.609Z,0
2023-03-20T00:17:20.560Z,0
2023-03-20T00:18:51.583Z,0
2023-03-20T00:19:48.877Z,0
2023-03-20T00:20:42.224Z,0
2023-03-20T00:21:35.892Z,0
2023-03-20T00:22:29.681Z,0
2023-03-20T00:23:21.876Z,0
2023-03-20T00:24:24.936Z,0
2023-03-20T00:26:01.326Z,0
2023-03-20T00:26:53.776Z,0
2023-03-20T00:27:20.148Z,0
2023-03-20T00:28:39.414Z,0
2023-03-20T00:30:24.833Z,0
2023-03-20T00:31:27.546Z,0
2023-03-20T00:33:25.147Z,0
2023-03-20T00:34:40.200Z,0
2023-03-20T00:35:44.135Z,0
2023-03-20T00:36:37.742Z,0
2023-03-20T00:37:30.444Z,0
2023-03-20T00:38:21.640Z,0
2023-03-20T00:39:25.048Z,0
2023-03-20T00:41:57.782Z,0
2023-03-20T00:42:48.070Z,0
2023-03-20T00:43:40.764Z,0
2023-03-20T00:45:27.289Z,0
2023-03-20T00:46:28.849Z,0
2023-03-20T00:47:21.735Z,0
2023-03-20T00:48:58.806Z,0
2023-03-20T00:49:52.316Z,0
2023-03-20T00:50:28.075Z,0
2023-03-20T00:51:37.390Z,0
2023-03-20T00:52:30.302Z,0
2023-03-20T00:53:23.633Z,0
2023-03-20T00:54:25.111Z,0
2023-03-20T00:56:03.454Z,0
2023-03-20T00:57:49.953Z,0
2023-03-20T00:58:42.726Z,0
2023-03-20T00:59:36.305Z,0
2023-03-20T01:00:26.877Z,0
2023-03-20T01:01:21.844Z,0
2023-03-20T01:02:22.914Z,0
2023-03-20T01:03:51.202Z,0
2023-03-20T01:04:53.053Z,0
2023-03-20T01:05:45.736Z,0
2023-03-20T01:06:37.864Z,0
2023-03-20T01:07:32.705Z,0
2023-03-20T01:08:25.959Z,0
2023-03-20T01:09:26.364Z,0
2023-03-20T01:10:20.265Z,0
2023-03-20T01:11:57.685Z,0
2023-03-20T01:13:44.071Z,0
2023-03-20T01:15:29.582Z,0
2023-03-20T01:16:21.238Z,0
2023-03-20T01:17:23.573Z,0
2023-03-20T01:18:26.151Z,0
2023-03-20T01:19:40.652Z,0
2023-03-20T01:20:47.457Z,0
2023-03-20T01:21:41.371Z,0
2023-03-20T01:22:35.930Z,0
2023-03-20T01:23:27.254Z,0
2023-03-20T01:24:27.872Z,0
2023-03-20T01:25:20.815Z,0
2023-03-20T01:26:59.040Z,0
2023-03-20T01:27:51.995Z,0
2023-03-20T01:28:45.005Z,0
2023-03-20T01:29:24.752Z,0
2023-03-20T01:30:30.791Z,0
2023-03-20T01:31:24.556Z,0
2023-03-20T01:32:24.543Z,0
2023-03-20T01:34:02.766Z,0
2023-03-20T01:34:56.648Z,0
2023-03-20T01:35:29.437Z,0
2023-03-20T01:37:35.436Z,0
2023-03-20T01:38:28.621Z,0
2023-03-20T01:39:19.391Z,0
2023-03-20T01:40:22.087Z,0
2023-03-20T01:41:34.140Z,0
2023-03-20T01:43:46.164Z,0
2023-03-20T01:44:39.378Z,0
2023-03-20T01:45:31.659Z,0
2023-03-20T01:46:26.360Z,0
2023-03-20T01:47:26.226Z,0
2023-03-20T01:48:53.214Z,0
2023-03-20T01:49:58.112Z,0
2023-03-20T01:50:50.733Z,0
2023-03-20T01:51:42.386Z,0
2023-03-20T01:52:44.711Z,0
2023-03-20T01:54:23.330Z,0
2023-03-20T01:57:54.875Z,0
2023-03-20T01:58:47.310Z,0
2023-03-20T01:59:41.437Z,0
2023-03-20T02:00:37.157Z,0
2023-03-20T02:01:27.853Z,0
2023-03-20T02:20:29.066Z,0
2023-03-20T02:21:47.431Z,0
2023-03-20T02:22:47.322Z,0
2023-03-20T02:23:32.216Z,0
2023-03-20T02:24:24.915Z,0
2023-03-20T02:25:24.403Z,0
2023-03-20T02:26:34.618Z,0
2023-03-20T02:27:50.210Z,0
2023-03-20T02:28:50.067Z,0
2023-03-20T02:29:43.406Z,0
2023-03-20T02:30:35.682Z,0
2023-03-20T02:31:30.127Z,0
2023-03-20T02:32:23.095Z,0
2023-03-20T02:33:21.701Z,0
2023-03-20T02:35:01.575Z,0
2023-03-20T02:35:54.943Z,0
2023-03-20T02:36:47.525Z,0
2023-03-20T02:38:35.735Z,0
2023-03-20T02:39:26.629Z,0
2023-03-20T02:40:25.762Z,0
2023-03-20T02:42:05.782Z,0
2023-03-20T02:42:22.901Z,0
2023-03-20T02:43:37.445Z,0
2023-03-20T02:44:45.470Z,0
2023-03-20T02:45:38.515Z,0
2023-03-20T02:46:31.943Z,0
2023-03-20T02:47:22.814Z,0
2023-03-20T02:48:23.741Z,0
2023-03-20T02:50:03.181Z,0
2023-03-20T02:50:55.781Z,0
2023-03-20T02:52:42.582Z,0
2023-03-20T02:53:21.942Z,0
2023-03-20T02:54:28.357Z,0
2023-03-20T02:55:20.526Z,0
2023-03-20T02:58:53.510Z,0
2023-03-20T02:59:26.787Z,0
2023-03-20T03:00:46.245Z,0
2023-03-20T03:02:25.479Z,0
2023-03-20T03:03:23.673Z,0
2023-03-20T03:05:04.542Z,0
2023-03-20T03:05:29.662Z,0
2023-03-20T03:07:49.930Z,0
2023-03-20T03:11:20.725Z,0
2023-03-20T03:12:49.602Z,0
2023-03-20T03:13:54.873Z,0
2023-03-20T03:14:48.539Z,0
2023-03-20T03:15:40.511Z,0
2023-03-20T03:16:29.181Z,0
2023-03-20T03:17:27.295Z,0
2023-03-20T03:18:19.961Z,0
2023-03-20T03:20:07.241Z,0
2023-03-20T03:20:25.972Z,0
2023-03-20T03:21:22.124Z,0
2023-03-20T03:22:33.279Z,0
2023-03-20T03:23:37.936Z,0
2023-03-20T03:25:22.738Z,0
2023-03-20T03:26:21.994Z,0
2023-03-20T03:27:23.801Z,0
2023-03-20T03:28:39.402Z,0
2023-03-20T03:29:51.791Z,0
2023-03-20T03:30:42.412Z,0
2023-03-20T03:31:37.488Z,0
2023-03-20T03:32:27.039Z,0
2023-03-20T03:33:21.384Z,0
2023-03-20T03:34:42.113Z,0
2023-03-20T03:35:57.385Z,0
2023-03-20T03:36:53.441Z,0
2023-03-20T03:37:46.386Z,0
2023-03-20T03:38:22.094Z,0
2023-03-20T03:41:22.726Z,0
2023-03-20T03:43:05.203Z,0
2023-03-20T03:43:57.822Z,0
2023-03-20T03:44:25.790Z,0
2023-03-20T03:45:41.019Z,0
2023-03-20T03:46:36.798Z,0
2023-03-20T03:47:29.764Z,0
2023-03-20T03:48:20.795Z,0
2023-03-20T03:50:32.602Z,0
2023-03-20T03:51:46.009Z,0
2023-03-20T03:52:47.005Z,0
2023-03-20T03:53:40.887Z,0
2023-03-20T03:55:26.206Z,0
2023-03-20T03:56:23.680Z,0
2023-03-20T03:57:49.761Z,0
2023-03-20T03:58:59.024Z,0
2023-03-20T03:59:52.048Z,0
2023-03-20T04:00:44.556Z,0
2023-03-20T04:01:29.812Z,0
2023-03-20T04:02:30.892Z,0
2023-03-20T04:03:24.863Z,0
2023-03-20T04:04:21.056Z,0
2023-03-20T04:06:04.629Z,0
2023-03-20T04:06:20.316Z,0
2023-03-20T04:07:37.223Z,0
2023-03-20T04:08:42.455Z,0
2023-03-20T04:09:36.800Z,0
2023-03-20T04:10:27.951Z,0
2023-03-20T04:12:24.860Z,0
2023-03-20T04:13:38.909Z,0
2023-03-20T04:14:53.039Z,0
2023-03-20T04:15:47.060Z,0
2023-03-20T04:16:40.755Z,0
2023-03-20T04:17:30.753Z,0
2023-03-20T04:18:25.777Z,0
2023-03-20T04:19:22.080Z,0
2023-03-20T04:20:57.406Z,0
2023-03-20T04:21:57.815Z,0
2023-03-20T04:22:50.409Z,0
2023-03-20T04:23:23.256Z,0
2023-03-20T04:24:42.138Z,0
2023-03-20T04:25:30.133Z,0
2023-03-20T04:26:22.416Z,0
2023-03-20T04:30:41.723Z,0
2023-03-20T04:31:40.756Z,0
2023-03-20T04:32:37.914Z,0
2023-03-20T04:33:26.684Z,0
2023-03-20T04:35:35.233Z,0
2023-03-20T04:36:30.447Z,0
2023-03-20T04:37:52.282Z,0
2023-03-20T04:38:44.590Z,0
2023-03-20T04:39:37.011Z,0
2023-03-20T04:40:25.371Z,0
2023-03-20T04:41:22.054Z,0
2023-03-20T04:42:21.240Z,0
2023-03-20T04:43:59.585Z,0
2023-03-20T04:44:26.067Z,0
2023-03-20T04:45:39.178Z,0
2023-03-20T04:46:29.290Z,0
2023-03-20T04:47:28.668Z,0
2023-03-20T04:48:27.366Z,0
2023-03-20T04:49:19.757Z,0
2023-03-20T04:50:31.672Z,0
2023-03-20T04:51:20.809Z,0
2023-03-20T04:52:38.188Z,0
2023-03-20T04:53:50.401Z,0
2023-03-20T04:54:29.813Z,0
2023-03-20T04:55:32.931Z,0
2023-03-20T04:56:20.234Z,0
2023-03-20T04:58:38.967Z,0
2023-03-20T04:59:53.695Z,0
2023-03-20T05:00:50.913Z,0
2023-03-20T05:01:44.745Z,0
2023-03-20T05:05:57.728Z,0
2023-03-20T05:07:01.713Z,0
2023-03-20T05:07:55.078Z,0
2023-03-20T05:08:22.958Z,0
2023-03-20T05:09:37.174Z,0
2023-03-20T05:10:34.696Z,0
2023-03-20T05:11:28.081Z,0
2023-03-20T05:12:21.982Z,0
2023-03-20T05:15:42.146Z,0
2023-03-20T05:16:45.179Z,0
2023-03-20T05:17:38.351Z,0
2023-03-20T05:18:29.490Z,-0
2023-03-20T05:19:23.862Z,0
2023-03-20T05:20:33.953Z,0
2023-03-20T05:21:47.388Z,0
2023-03-20T05:22:58.947Z,0
2023-03-20T05:23:52.213Z,0
2023-03-20T05:29:09.977Z,0
2023-03-20T05:31:31.201Z,0
2023-03-20T05:32:45.050Z,0
2023-03-20T05:33:38.324Z,0
2023-03-20T05:34:29.533Z,0
2023-03-20T05:35:20.474Z,0
2023-03-20T05:36:21.817Z,0
2023-03-20T05:37:35.753Z,0
2023-03-20T05:38:53.599Z,0
2023-03-20T05:39:46.462Z,0
2023-03-20T05:40:26.523Z,0
2023-03-20T05:41:31.341Z,0
2023-03-20T05:42:25.519Z,0
2023-03-20T05:43:39.966Z,0
2023-03-20T05:44:53.916Z,0
2023-03-20T05:45:57.355Z,0
2023-03-20T05:46:50.016Z,0
2023-03-20T05:48:37.879Z,0
2023-03-20T05:49:28.875Z,0
2023-03-20T05:50:21.413Z,0
2023-03-20T05:52:50.044Z,0
2023-03-20T05:53:25.571Z,0
2023-03-20T05:54:36.544Z,0
2023-03-20T05:55:24.243Z,0
2023-03-20T05:56:33.430Z,0
2023-03-20T05:57:24.719Z,0
2023-03-20T05:58:24.815Z,0
2023-03-20T05:59:29.007Z,0
2023-03-20T06:00:41.778Z,0
2023-03-20T06:01:41.981Z,0
2023-03-20T06:02:38.214Z,0
2023-03-20T06:03:33.591Z,0
2023-03-20T06:05:21.580Z,0
2023-03-20T06:07:46.487Z,1
2023-03-20T06:08:54.694Z,1
2023-03-20T06:09:47.543Z,1
2023-03-20T06:10:25.513Z,1
2023-03-20T06:11:37.378Z,1
2023-03-20T06:12:26.917Z,1
2023-03-20T06:13:22.186Z,1
2023-03-20T06:15:07.112Z,1
2023-03-20T06:15:59.271Z,1
2023-03-20T06:16:22.492Z,1
2023-03-20T06:17:43.656Z,1
2023-03-20T06:18:37.708Z,1
2023-03-20T06:21:23.455Z,1
2023-03-20T06:23:03.920Z,1
2023-03-20T06:23:50.603Z,1
2023-03-20T06:24:49.821Z,1
2023-03-20T06:25:42.530Z,1
2023-03-20T06:26:35.522Z,1
2023-03-20T06:29:54.379Z,1
2023-03-20T06:33:33.948Z,2
2023-03-20T06:34:32.101Z,2
2023-03-20T06:35:25.026Z,2
2023-03-20T06:38:24.660Z,2
2023-03-20T06:39:39.348Z,2
2023-03-20T06:40:43.957Z,2
2023-03-20T06:41:38.747Z,2
2023-03-20T06:42:29.197Z,2
2023-03-20T06:44:29.941Z,2
2023-03-20T06:45:44.287Z,2
2023-03-20T06:46:54.335Z,2
2023-03-20T06:47:46.815Z,2
2023-03-20T06:49:23.994Z,2
2023-03-20T06:50:26.841Z,2
2023-03-20T06:51:47.861Z,2
2023-03-20T06:53:05.851Z,2
2023-03-20T06:53:28.690Z,2
2023-03-20T06:54:24.143Z,2
2023-03-20T06:55:20.745Z,2
2023-03-20T06:56:30.400Z,2
2023-03-20T06:57:28.374Z,2
2023-03-20T07:01:32.986Z,2
2023-03-20T07:02:48.497Z,2
2023-03-20T07:06:25.593Z,2
2023-03-20T07:08:50.408Z,2
2023-03-20T07:10:04.777Z,2
2023-03-20T07:11:17.348Z,2
2023-03-20T07:14:56.491Z,2
2023-03-20T07:20:27.928Z,2
2023-03-20T07:21:20.097Z,2
2023-03-20T07:23:07.821Z,2
2023-03-20T07:23:25.292Z,2
2023-03-20T07:25:46.591Z,2
2023-03-20T07:26:38.123Z,2
2023-03-20T07:27:32.309Z,2
2023-03-20T07:29:31.909Z,2
2023-03-20T07:31:31.873Z,2
2023-03-20T07:32:51.295Z,2
2023-03-20T07:33:44.633Z,2
2023-03-20T07:34:23.754Z,2
2023-03-20T07:36:22.836Z,3
2023-03-20T07:39:01.847Z,3
2023-03-20T07:39:54.814Z,3
2023-03-20T07:40:28.416Z,3
2023-03-20T07:41:43.222Z,3
2023-03-20T07:42:34.821Z,3
2023-03-20T07:43:26.188Z,3
2023-03-20T07:45:21.301Z,3
2023-03-20T07:46:36.923Z,3
2023-03-20T07:47:22.458Z,3
2023-03-20T07:48:34.742Z,3
2023-03-20T07:49:28.218Z,4
2023-03-20T07:51:25.698Z,5
2023-03-20T07:52:30.403Z,5
2023-03-20T07:53:26.506Z,5
2023-03-20T07:54:23.951Z,6
2023-03-20T07:55:34.552Z,7
2023-03-20T07:56:28.485Z,8
2023-03-20T07:57:35.944Z,8
2023-03-20T07:58:21.177Z,8
2023-03-20T07:59:21.639Z,8
2023-03-20T08:00:42.372Z,7
2023-03-20T08:01:37.960Z,8
2023-03-20T08:03:30.373Z,9
2023-03-20T08:04:38.373Z,11
2023-03-20T08:05:33.145Z,8
2023-03-20T08:06:24.078Z,8
2023-03-20T08:07:26.567Z,8
2023-03-20T08:08:22.208Z,8
2023-03-20T08:09:36.947Z,9
2023-03-20T08:10:42.505Z,8
2023-03-20T08:11:26.167Z,8
2023-03-20T08:12:21.285Z,8
2023-03-20T08:13:30.031Z,10
2023-03-20T08:14:21.156Z,10
2023-03-20T08:15:23.127Z,9
2023-03-20T08:16:34.547Z,10
2023-03-20T08:17:28.190Z,8
2023-03-20T08:18:26.473Z,8
2023-03-20T08:19:20.527Z,6
2023-03-20T08:20:36.258Z,6
2023-03-20T08:21:27.053Z,6
2023-03-20T08:22:23.198Z,5
2023-03-20T08:23:36.059Z,6
2023-03-20T08:24:28.788Z,8
2023-03-20T08:25:25.910Z,8
2023-03-20T08:26:20.211Z,7
2023-03-20T08:27:30.673Z,7
2023-03-20T08:28:46.192Z,7
2023-03-20T08:29:21.485Z,8
2023-03-20T08:30:22.430Z,10
2023-03-20T08:31:29.468Z,11
2023-03-20T08:32:38.601Z,11
2023-03-20T08:33:21.390Z,10
2023-03-20T08:34:30.343Z,6
2023-03-20T08:35:33.192Z,11
2023-03-20T08:36:27.203Z,13
2023-03-20T08:37:20.049Z,14
2023-03-20T08:38:28.761Z,15
2023-03-20T08:39:26.011Z,11
2023-03-20T08:40:20.070Z,12
2023-03-20T08:41:30.325Z,10
2023-03-20T08:42:31.897Z,9
2023-03-20T08:43:30.506Z,12
2023-03-20T08:44:23.915Z,12
2023-03-20T08:45:29.941Z,12
2023-03-20T08:47:22.518Z,13
2023-03-20T08:48:30.184Z,13
2023-03-20T08:49:28.646Z,12
2023-03-20T08:50:23.650Z,12
2023-03-20T08:51:29.475Z,17
2023-03-20T08:52:21.210Z,15
2023-03-20T08:53:28.789Z,13
2023-03-20T08:54:20.425Z,12
2023-03-20T08:55:30.655Z,10
2023-03-20T08:56:28.283Z,10
2023-03-20T08:57:23.139Z,14
2023-03-20T08:58:21.230Z,11
2023-03-20T08:59:25.944Z,12
2023-03-20T09:00:24.732Z,18
2023-03-20T09:01:22.123Z,11
2023-03-20T09:02:30.671Z,17
2023-03-20T09:03:42.268Z,22
2023-03-20T09:04:26.791Z,16
2023-03-20T09:05:40.111Z,23
2023-03-20T09:06:29.634Z,25
2023-03-20T09:07:25.891Z,19
2023-03-20T09:08:20.739Z,25
2023-03-20T09:09:30.261Z,30
2023-03-20T09:10:27.988Z,34
2023-03-20T09:11:22.628Z,34
2023-03-20T09:12:34.775Z,32
2023-03-20T09:13:31.833Z,30
2023-03-20T09:14:26.535Z,31
2023-03-20T09:15:21.897Z,31
2023-03-20T09:16:31.264Z,31
2023-03-20T09:17:28.203Z,30
2023-03-20T09:18:22.526Z,37
2023-03-20T09:19:35.397Z,28
2023-03-20T09:20:28.366Z,31
2023-03-20T09:21:27.631Z,37
2023-03-20T09:22:20.501Z,38
2023-03-20T09:23:30.823Z,39
2023-03-20T09:24:27.197Z,39
2023-03-20T09:25:22.493Z,40
2023-03-20T09:26:35.189Z,39
2023-03-20T09:27:31.547Z,41
2023-03-20T09:28:24.580Z,43
2023-03-20T09:29:20.571Z,26
2023-03-20T09:30:23.056Z,40
2023-03-20T09:31:26.400Z,42
2023-03-20T09:32:25.290Z,46
2023-03-20T09:33:34.389Z,48
2023-03-20T09:34:28.972Z,21
2023-03-20T09:35:24.675Z,29
2023-03-20T09:36:20.866Z,18
2023-03-20T09:37:21.881Z,11
2023-03-20T09:38:28.448Z,11
2023-03-20T09:39:22.539Z,13
2023-03-20T09:40:36.800Z,35
2023-03-20T09:41:30.526Z,32
2023-03-20T09:42:26.173Z,13
2023-03-20T09:43:20.804Z,13
2023-03-20T09:44:27.202Z,12
2023-03-20T09:45:22.813Z,13
2023-03-20T09:46:23.044Z,14
2023-03-20T09:47:36.290Z,26
2023-03-20T09:48:28.694Z,10
2023-03-20T09:49:27.275Z,9
2023-03-20T09:50:20.479Z,8
2023-03-20T09:51:30.432Z,8
2023-03-20T09:52:24.084Z,8
2023-03-20T09:53:19.637Z,8
2023-03-20T09:54:47.305Z,9
2023-03-20T09:55:32.147Z,9
2023-03-20T09:56:24.661Z,10
2023-03-20T09:57:22.143Z,10
2023-03-20T09:58:36.689Z,11
2023-03-20T09:59:26.948Z,12
2023-03-20T10:00:24.622Z,16
2023-03-20T10:01:39.685Z,14
2023-03-20T10:02:29.181Z,14
2023-03-20T10:03:25.879Z,11
2023-03-20T10:04:22.128Z,11
2023-03-20T10:05:30.521Z,11
2023-03-20T10:06:31.937Z,11
2023-03-20T10:07:23.680Z,11
2023-03-20T10:08:23.514Z,10
2023-03-20T10:09:29.875Z,10
2023-03-20T10:10:24.598Z,10
2023-03-20T10:11:22.551Z,10
2023-03-20T10:12:36.234Z,10
2023-03-20T10:13:29.172Z,10
2023-03-20T10:14:23.811Z,11
2023-03-20T10:15:20.499Z,12
2023-03-20T10:16:28.592Z,16
2023-03-20T10:17:24.852Z,19
2023-03-20T10:18:22.470Z,20
2023-03-20T10:19:31.876Z,29
2023-03-20T10:20:26.597Z,13
2023-03-20T10:21:23.726Z,10
2023-03-20T10:22:24.468Z,10
2023-03-20T10:23:22.515Z,10
2023-03-20T10:24:24.229Z,9
2023-03-20T10:25:20.616Z,9
2023-03-20T10:26:32.896Z,9
2023-03-20T10:27:28.416Z,9
2023-03-20T10:28:23.338Z,10
2023-03-20T10:29:29.252Z,10
2023-03-20T10:30:21.398Z,11
2023-03-20T10:31:21.670Z,12
2023-03-20T10:32:20.594Z,13
2023-03-20T10:33:31.357Z,16
2023-03-20T10:34:29.253Z,17
2023-03-20T10:35:22.621Z,45
2023-03-20T10:36:32.274Z,40
2023-03-20T10:37:28.020Z,44
2023-03-20T10:38:24.455Z,36
2023-03-20T10:39:20.893Z,20
2023-03-20T10:40:32.226Z,17
2023-03-20T10:41:26.706Z,13
2023-03-20T10:42:25.036Z,11
2023-03-20T10:43:40.224Z,10
2023-03-20T10:44:29.146Z,10
2023-03-20T10:45:25.594Z,10
2023-03-20T10:46:21.192Z,10
2023-03-20T10:47:32.234Z,11
2023-03-20T10:48:26.874Z,11
2023-03-20T10:49:24.213Z,12
2023-03-20T10:50:35.874Z,13
2023-03-20T10:51:28.757Z,12
2023-03-20T10:52:26.934Z,11
2023-03-20T10:53:20.472Z,11
2023-03-20T10:54:32.592Z,12
2023-03-20T10:55:26.820Z,12
2023-03-20T10:56:24.435Z,12
2023-03-20T10:57:36.298Z,13
2023-03-20T10:58:28.384Z,13
2023-03-20T10:59:27.058Z,14
2023-03-20T11:00:23.618Z,14
2023-03-20T11:01:22.721Z,17
2023-03-20T11:02:26.684Z,30
2023-03-20T11:03:22.803Z,43
2023-03-20T11:04:35.419Z,45
2023-03-20T11:05:30.950Z,45
2023-03-20T11:06:24.744Z,45
2023-03-20T11:07:21.839Z,43
2023-03-20T11:08:20.576Z,44
2023-03-20T11:09:20.102Z,46
2023-03-20T11:10:25.343Z,45
2023-03-20T11:11:34.555Z,26
2023-03-20T11:12:28.586Z,12
2023-03-20T11:13:26.493Z,11
2023-03-20T11:14:20.782Z,11
2023-03-20T11:15:26.701Z,11
2023-03-20T11:16:27.574Z,11
2023-03-20T11:17:22.771Z,12
2023-03-20T11:18:33.577Z,13
2023-03-20T11:19:29.373Z,14
2023-03-20T11:20:43.524Z,14
2023-03-20T11:21:22.643Z,14
2023-03-20T11:22:31.614Z,14
2023-03-20T11:23:21.360Z,14
2023-03-20T11:24:22.628Z,20
2023-03-20T11:25:33.596Z,42
2023-03-20T11:26:28.492Z,43
2023-03-20T11:27:27.411Z,42
2023-03-20T11:28:21.537Z,43
2023-03-20T11:29:35.069Z,44
2023-03-20T11:30:26.561Z,46
2023-03-20T11:31:26.075Z,45
2023-03-20T11:32:34.730Z,43
2023-03-20T11:33:28.429Z,42
2023-03-20T11:34:25.766Z,35
2023-03-20T11:35:20.556Z,43
2023-03-20T11:36:30.943Z,43
2023-03-20T11:37:31.359Z,42
2023-03-20T11:38:22.580Z,43
2023-03-20T11:39:23.744Z,42
2023-03-20T11:40:29.223Z,41
2023-03-20T11:41:22.683Z,41
2023-03-20T11:42:21.213Z,43
2023-03-20T11:43:30.815Z,44
2023-03-20T11:44:27.990Z,46
2023-03-20T11:45:22.527Z,46
2023-03-20T11:46:27.210Z,47
2023-03-20T11:47:21.851Z,47
2023-03-20T11:48:24.425Z,47
2023-03-20T11:49:22.501Z,46
2023-03-20T11:50:32.617Z,45
2023-03-20T11:51:26.927Z,45
2023-03-20T11:52:22.468Z,45
2023-03-20T11:53:24.919Z,43
2023-03-20T11:54:24.133Z,37
2023-03-20T11:55:24.939Z,46
2023-03-20T11:56:21.258Z,46
2023-03-20T11:57:30.815Z,47
2023-03-20T11:58:25.080Z,48
2023-03-20T11:59:22.965Z,38
2023-03-20T12:00:27.429Z,15
2023-03-20T12:01:22.473Z,13
2023-03-20T12:02:21.237Z,13
2023-03-20T12:03:20.561Z,12
2023-03-20T12:04:32.270Z,12
2023-03-20T12:05:26.780Z,12
2023-03-20T12:06:24.458Z,13
2023-03-20T12:07:34.821Z,15
2023-03-20T12:08:23.995Z,40
2023-03-20T12:09:22.007Z,38
2023-03-20T12:10:20.783Z,18
2023-03-20T12:11:30.379Z,33
2023-03-20T12:12:28.297Z,42
2023-03-20T12:13:24.393Z,42
2023-03-20T12:14:35.829Z,42
2023-03-20T12:15:25.028Z,42
2023-03-20T12:16:21.719Z,43
2023-03-20T12:17:22.536Z,43
2023-03-20T12:18:32.556Z,44
2023-03-20T12:19:26.687Z,44
2023-03-20T12:20:23.526Z,43
2023-03-20T12:21:33.670Z,44
2023-03-20T12:22:28.651Z,35
2023-03-20T12:23:25.260Z,40
2023-03-20T12:24:20.856Z,23
2023-03-20T12:25:20.709Z,38
2023-03-20T12:26:21.954Z,42
2023-03-20T12:27:23.841Z,43
2023-03-20T12:28:35.756Z,43
2023-03-20T12:29:28.554Z,43
2023-03-20T12:30:25.949Z,44
2023-03-20T12:31:22.687Z,43
2023-03-20T12:32:24.949Z,43
2023-03-20T12:33:26.604Z,43
2023-03-20T12:34:24.166Z,42
2023-03-20T12:35:37.153Z,41
2023-03-20T12:36:28.553Z,41
2023-03-20T12:37:24.804Z,42
2023-03-20T12:38:20.725Z,43
2023-03-20T12:39:31.351Z,42
2023-03-20T12:40:23.353Z,41
2023-03-20T12:41:22.843Z,43
2023-03-20T12:42:32.902Z,42
2023-03-20T12:43:25.319Z,42
2023-03-20T12:44:24.644Z,42
2023-03-20T12:45:23.985Z,41
2023-03-20T12:46:24.294Z,40
2023-03-20T12:47:26.407Z,40
2023-03-20T12:48:22.569Z,39
2023-03-20T12:49:30.276Z,38
2023-03-20T12:50:28.964Z,38
2023-03-20T12:51:25.676Z,37
2023-03-20T12:52:21.250Z,34
2023-03-20T12:53:27.713Z,33
2023-03-20T12:54:22.650Z,35
2023-03-20T12:55:22.877Z,36
2023-03-20T12:56:32.803Z,36
2023-03-20T12:57:29.672Z,36
2023-03-20T12:58:24.508Z,35
2023-03-20T12:59:20.227Z,36
2023-03-20T13:00:28.031Z,37
2023-03-20T13:01:26.992Z,37
2023-03-20T13:02:22.600Z,36
2023-03-20T13:03:19.348Z,37
2023-03-20T13:04:28.836Z,38
2023-03-20T13:05:25.483Z,38
2023-03-20T13:06:22.309Z,37
2023-03-20T13:07:32.403Z,37
2023-03-20T13:08:29.111Z,38
2023-03-20T13:09:22.661Z,38
2023-03-20T13:10:23.859Z,40
2023-03-20T13:11:23.261Z,41
2023-03-20T13:12:25.103Z,40
2023-03-20T13:13:21.805Z,38
2023-03-20T13:14:32.048Z,38
2023-03-20T13:15:26.766Z,37
2023-03-20T13:16:25.734Z,38
2023-03-20T13:17:36.070Z,38
2023-03-20T13:18:21.236Z,37
2023-03-20T13:19:24.824Z,36
2023-03-20T13:20:21.032Z,36
2023-03-20T13:21:30.652Z,36
2023-03-20T13:22:21.688Z,37
2023-03-20T13:23:23.156Z,37
2023-03-20T13:24:22.771Z,38
2023-03-20T13:25:24.976Z,34
2023-03-20T13:26:24.741Z,27
2023-03-20T13:27:20.630Z,29
2023-03-20T13:28:26.986Z,39
2023-03-20T13:29:27.847Z,32
2023-03-20T13:30:24.623Z,28
2023-03-20T13:31:26.377Z,31
2023-03-20T13:32:30.376Z,26
2023-03-20T13:33:24.665Z,22
2023-03-20T13:34:20.543Z,26
2023-03-20T13:35:31.681Z,26
2023-03-20T13:36:27.027Z,27
2023-03-20T13:37:24.939Z,30
2023-03-20T13:38:37.043Z,31
2023-03-20T13:39:23.281Z,32
2023-03-20T13:40:26.822Z,35
2023-03-20T13:41:21.475Z,34
2023-03-20T13:42:32.325Z,35
2023-03-20T13:43:26.432Z,36
2023-03-20T13:44:22.764Z,37
2023-03-20T13:45:31.712Z,38
2023-03-20T13:46:28.584Z,40
2023-03-20T13:47:21.811Z,41
2023-03-20T13:48:21.420Z,41
2023-03-20T13:49:31.022Z,40
2023-03-20T13:50:26.875Z,39
2023-03-20T13:51:22.374Z,31
2023-03-20T13:52:34.571Z,14
2023-03-20T13:53:36.462Z,13
2023-03-20T13:54:24.516Z,12
2023-03-20T13:55:20.803Z,12
2023-03-20T13:56:21.072Z,12
2023-03-20T13:57:28.142Z,12
2023-03-20T13:58:22.596Z,12
2023-03-20T13:59:35.919Z,14
2023-03-20T14:00:29.042Z,29
2023-03-20T14:01:24.549Z,22
2023-03-20T14:02:21.750Z,13
2023-03-20T14:03:24.831Z,12
2023-03-20T14:04:26.894Z,13
2023-03-20T14:05:23.307Z,12
2023-03-20T14:06:33.716Z,12
2023-03-20T14:07:22.866Z,12
2023-03-20T14:08:24.785Z,12
2023-03-20T14:09:21.218Z,13
2023-03-20T14:10:32.148Z,21
2023-03-20T14:11:22.279Z,32
2023-03-20T14:12:22.585Z,44
2023-03-20T14:13:27.964Z,44
2023-03-20T14:14:30.845Z,35
2023-03-20T14:15:25.646Z,27
2023-03-20T14:16:22.055Z,43
2023-03-20T14:17:22.276Z,43
2023-03-20T14:18:40.612Z,44
2023-03-20T14:19:19.446Z,25
2023-03-20T14:20:36.696Z,15
2023-03-20T14:21:29.556Z,15
2023-03-20T14:22:26.418Z,18
2023-03-20T14:23:21.304Z,22
2023-03-20T14:24:22.596Z,19
2023-03-20T14:25:26.857Z,19
2023-03-20T14:26:23.951Z,40
2023-03-20T14:27:44.412Z,41
2023-03-20T14:28:28.838Z,41
2023-03-20T14:29:24.569Z,40
2023-03-20T14:30:21.004Z,37
2023-03-20T14:31:30.473Z,23
2023-03-20T14:32:25.154Z,11
2023-03-20T14:33:24.653Z,32
2023-03-20T14:34:22.597Z,12
2023-03-20T14:35:23.277Z,8
2023-03-20T14:36:25.393Z,8
2023-03-20T14:37:23.049Z,7
2023-03-20T14:38:31.164Z,7
2023-03-20T14:39:27.671Z,7
2023-03-20T14:40:22.982Z,7
2023-03-20T14:41:27.036Z,7
2023-03-20T14:42:28.646Z,7
2023-03-20T14:43:24.816Z,7
2023-03-20T14:44:21.008Z,7
2023-03-20T14:45:30.594Z,12
2023-03-20T14:46:28.080Z,33
2023-03-20T14:47:24.370Z,34
2023-03-20T14:48:30.308Z,33
2023-03-20T14:49:22.389Z,32
2023-03-20T14:50:24.811Z,34
2023-03-20T14:51:21.084Z,34
2023-03-20T14:52:23.843Z,34
2023-03-20T14:53:28.478Z,33
2023-03-20T14:54:22.738Z,32
2023-03-20T14:55:22.994Z,32
2023-03-20T14:56:28.368Z,31
2023-03-20T14:58:21.268Z,31
2023-03-20T14:59:31.005Z,30
2023-03-20T15:00:26.629Z,32
2023-03-20T15:01:22.763Z,32
2023-03-20T15:02:25.888Z,32
2023-03-20T15:03:31.899Z,30
2023-03-20T15:04:24.521Z,28
2023-03-20T15:05:20.719Z,27
2023-03-20T15:06:30.992Z,26
2023-03-20T15:07:28.609Z,25
2023-03-20T15:08:22.600Z,29
2023-03-20T15:09:25.651Z,29
2023-03-20T15:10:22.757Z,29
2023-03-20T15:11:24.311Z,30
2023-03-20T15:12:22.748Z,28
2023-03-20T15:13:30.959Z,28
2023-03-20T15:14:27.001Z,28
2023-03-20T15:15:24.028Z,26
2023-03-20T15:16:37.676Z,26
2023-03-20T15:17:28.965Z,26
2023-03-20T15:18:24.731Z,26
2023-03-20T15:19:20.347Z,25
2023-03-20T15:20:22.305Z,25
2023-03-20T15:21:27.061Z,24
2023-03-20T15:22:22.995Z,25
2023-03-20T15:23:37.478Z,25
2023-03-20T15:24:30.508Z,25
2023-03-20T15:25:26.127Z,25
2023-03-20T15:26:20.716Z,24
2023-03-20T15:27:23.633Z,25
2023-03-20T15:28:27.030Z,26
2023-03-20T15:29:24.824Z,25
2023-03-20T15:30:33.484Z,24
2023-03-20T15:31:28.851Z,24
2023-03-20T15:32:28.575Z,23
2023-03-20T15:33:21.468Z,24
2023-03-20T15:34:26.626Z,24
2023-03-20T15:35:19.195Z,24
2023-03-20T15:36:22.980Z,24
2023-03-20T15:37:24.158Z,22
2023-03-20T15:38:28.745Z,22
2023-03-20T15:39:24.505Z,22
2023-03-20T15:40:22.201Z,23
2023-03-20T15:41:46.467Z,23
2023-03-20T15:42:25.114Z,23
2023-03-20T15:43:22.980Z,23
2023-03-20T15:44:34.447Z,22
2023-03-20T15:45:30.358Z,22
2023-03-20T15:46:24.565Z,22
2023-03-20T15:47:22.790Z,21
2023-03-20T15:48:21.401Z,20
2023-03-20T15:49:27.598Z,20
2023-03-20T15:50:22.941Z,20
2023-03-20T15:51:32.604Z,20
2023-03-20T15:52:29.656Z,20
2023-03-20T15:53:24.693Z,19
2023-03-20T15:54:21.991Z,19
2023-03-20T15:55:25.493Z,19
2023-03-20T15:56:26.891Z,19
2023-03-20T15:57:27.225Z,18
2023-03-20T15:58:34.358Z,17
2023-03-20T15:59:28.288Z,17
2023-03-20T16:00:26.338Z,17
2023-03-20T16:01:20.758Z,16
2023-03-20T16:02:31.033Z,16
2023-03-20T16:03:22.266Z,16
2023-03-20T16:04:23.030Z,16
2023-03-20T16:05:23.436Z,16
2023-03-20T16:06:28.763Z,16
2023-03-20T16:07:25.077Z,16
2023-03-20T16:08:22.487Z,16
2023-03-20T16:09:34.549Z,15
2023-03-20T16:10:27.226Z,15
2023-03-20T16:11:22.798Z,15
2023-03-20T16:12:26.333Z,14
2023-03-20T16:13:19.649Z,14
2023-03-20T16:14:26.665Z,13
2023-03-20T16:15:20.477Z,13